sensor_id;sensor_type;location;lat;lon;timestamp;P1;durP1;ratioP1;P2;durP2;ratioP2
8411;SDS011;4243;49.296;11.348;2022-11-20T00:01:31;116.17;;;3.30;;
8411;SDS011;4243;49.296;11.348;2022-11-20T00:03:58;115.33;;;3.30;;
8411;SDS011;4243;49.296;11.348;2022-11-20T00:06:26;115.93;;;3.30;;
8411;SDS011;4243;49.296;11.348;2022-11-20T00:08:55;115.20;;;3.20;;
8411;SDS011;4243;49.296;11.348;2022-11-20T00:11:26;116.17;;;3.30;;
8411;SDS011;4243;49.296;11.348;2022-11-20T00:13:56;115.97;;;3.37;;
8411;SDS011;4243;49.296;11.348;2022-11-20T00:16:27;115.77;;;3.30;;
8411;SDS011;4243;49.296;11.348;2022-11-20T00:18:58;115.37;;;3.30;;
8411;SDS011;4243;49.296;11.348;2022-11-20T00:21:26;114.80;;;3.20;;
8411;SDS011;4243;49.296;11.348;2022-11-20T00:23:55;115.00;;;3.30;;
8411;SDS011;4243;49.296;11.348;2022-11-20T00:26:24;114.70;;;3.27;;
8411;SDS011;4243;49.296;11.348;2022-11-20T00:28:54;115.70;;;3.30;;
8411;SDS011;4243;49.296;11.348;2022-11-20T00:31:27;114.97;;;3.23;;
8411;SDS011;4243;49.296;11.348;2022-11-20T00:33:56;115.43;;;3.27;;
8411;SDS011;4243;49.296;11.348;2022-11-20T00:36:24;114.40;;;3.20;;
8411;SDS011;4243;49.296;11.348;2022-11-20T00:38:54;115.43;;;3.30;;
8411;SDS011;4243;49.296;11.348;2022-11-20T00:41:26;115.40;;;3.20;;
8411;SDS011;4243;49.296;11.348;2022-11-20T00:43:55;115.10;;;3.23;;
8411;SDS011;4243;49.296;11.348;2022-11-20T00:46:24;115.83;;;3.30;;
8411;SDS011;4243;49.296;11.348;2022-11-20T00:48:53;115.33;;;3.20;;
8411;SDS011;4243;49.296;11.348;2022-11-20T00:51:22;114.80;;;3.20;;
8411;SDS011;4243;49.296;11.348;2022-11-20T00:53:51;114.67;;;3.27;;
8411;SDS011;4243;49.296;11.348;2022-11-20T00:56:22;115.00;;;3.20;;
8411;SDS011;4243;49.296;11.348;2022-11-20T00:58:49;115.00;;;3.27;;
8411;SDS011;4243;49.296;11.348;2022-11-20T01:01:18;115.60;;;3.20;;
8411;SDS011;4243;49.296;11.348;2022-11-20T01:03:53;115.53;;;3.27;;
8411;SDS011;4243;49.296;11.348;2022-11-20T01:06:28;115.60;;;3.23;;
8411;SDS011;4243;49.296;11.348;2022-11-20T01:09:04;115.67;;;3.27;;
8411;SDS011;4243;49.296;11.348;2022-11-20T01:11:42;114.87;;;3.13;;
8411;SDS011;4243;49.296;11.348;2022-11-20T01:14:12;115.77;;;3.20;;
8411;SDS011;4243;49.296;11.348;2022-11-20T01:16:45;115.47;;;3.20;;
8411;SDS011;4243;49.296;11.348;2022-11-20T01:19:16;115.67;;;3.20;;
8411;SDS011;4243;49.296;11.348;2022-11-20T01:21:51;115.20;;;3.30;;
8411;SDS011;4243;49.296;11.348;2022-11-20T01:24:21;115.87;;;3.10;;
8411;SDS011;4243;49.296;11.348;2022-11-20T01:26:49;114.57;;;3.20;;
8411;SDS011;4243;49.296;11.348;2022-11-20T01:29:19;115.60;;;3.23;;
8411;SDS011;4243;49.296;11.348;2022-11-20T01:31:50;114.93;;;3.20;;
8411;SDS011;4243;49.296;11.348;2022-11-20T01:34:19;114.80;;;3.20;;
8411;SDS011;4243;49.296;11.348;2022-11-20T01:36:48;115.47;;;3.23;;
8411;SDS011;4243;49.296;11.348;2022-11-20T01:39:18;116.03;;;3.23;;
8411;SDS011;4243;49.296;11.348;2022-11-20T01:41:50;114.70;;;3.20;;
8411;SDS011;4243;49.296;11.348;2022-11-20T01:47:23;115.67;;;3.20;;
8411;SDS011;4243;49.296;11.348;2022-11-20T01:50:10;115.67;;;3.20;;
8411;SDS011;4243;49.296;11.348;2022-11-20T01:52:51;115.47;;;3.23;;
8411;SDS011;4243;49.296;11.348;2022-11-20T01:55:24;114.97;;;3.27;;
8411;SDS011;4243;49.296;11.348;2022-11-20T01:58:03;115.73;;;3.23;;
8411;SDS011;4243;49.296;11.348;2022-11-20T02:00:31;115.67;;;3.20;;
8411;SDS011;4243;49.296;11.348;2022-11-20T02:02:59;115.77;;;3.20;;
8411;SDS011;4243;49.296;11.348;2022-11-20T02:05:35;115.67;;;3.20;;
8411;SDS011;4243;49.296;11.348;2022-11-20T02:08:12;115.77;;;3.20;;
8411;SDS011;4243;49.296;11.348;2022-11-20T02:10:40;115.07;;;3.23;;
8411;SDS011;4243;49.296;11.348;2022-11-20T02:13:07;115.93;;;3.20;;
8411;SDS011;4243;49.296;11.348;2022-11-20T02:15:53;114.07;;;3.23;;
8411;SDS011;4243;49.296;11.348;2022-11-20T02:18:21;115.67;;;3.23;;
8411;SDS011;4243;49.296;11.348;2022-11-20T02:20:52;115.67;;;3.23;;
8411;SDS011;4243;49.296;11.348;2022-11-20T02:26:51;115.37;;;3.20;;
8411;SDS011;4243;49.296;11.348;2022-11-20T02:32:34;115.70;;;3.23;;
8411;SDS011;4243;49.296;11.348;2022-11-20T02:35:35;114.90;;;3.20;;
8411;SDS011;4243;49.296;11.348;2022-11-20T02:37:53;115.40;;;3.20;;
8411;SDS011;4243;49.296;11.348;2022-11-20T02:40:25;115.30;;;3.20;;
8411;SDS011;4243;49.296;11.348;2022-11-20T02:42:53;115.10;;;3.23;;
8411;SDS011;4243;49.296;11.348;2022-11-20T02:45:21;115.77;;;3.20;;
8411;SDS011;4243;49.296;11.348;2022-11-20T02:47:50;114.73;;;3.20;;
8411;SDS011;4243;49.296;11.348;2022-11-20T02:50:17;115.77;;;3.30;;
8411;SDS011;4243;49.296;11.348;2022-11-20T02:52:45;114.63;;;3.20;;
8411;SDS011;4243;49.296;11.348;2022-11-20T02:55:12;113.40;;;3.20;;
8411;SDS011;4243;49.296;11.348;2022-11-20T02:57:40;115.40;;;3.27;;
8411;SDS011;4243;49.296;11.348;2022-11-20T03:00:07;115.37;;;3.20;;
8411;SDS011;4243;49.296;11.348;2022-11-20T03:02:35;115.10;;;3.20;;
8411;SDS011;4243;49.296;11.348;2022-11-20T03:05:03;115.47;;;3.23;;
8411;SDS011;4243;49.296;11.348;2022-11-20T03:07:30;115.47;;;3.20;;
8411;SDS011;4243;49.296;11.348;2022-11-20T03:09:58;115.87;;;3.27;;
8411;SDS011;4243;49.296;11.348;2022-11-20T03:12:25;114.80;;;3.23;;
8411;SDS011;4243;49.296;11.348;2022-11-20T03:14:52;116.27;;;3.30;;
8411;SDS011;4243;49.296;11.348;2022-11-20T03:17:19;115.77;;;3.20;;
8411;SDS011;4243;49.296;11.348;2022-11-20T03:19:46;115.70;;;3.20;;
8411;SDS011;4243;49.296;11.348;2022-11-20T03:22:14;115.87;;;3.30;;
8411;SDS011;4243;49.296;11.348;2022-11-20T03:24:41;115.23;;;3.20;;
8411;SDS011;4243;49.296;11.348;2022-11-20T03:27:08;114.77;;;3.20;;
8411;SDS011;4243;49.296;11.348;2022-11-20T03:29:35;115.73;;;3.27;;
8411;SDS011;4243;49.296;11.348;2022-11-20T03:32:02;115.87;;;3.23;;
8411;SDS011;4243;49.296;11.348;2022-11-20T03:34:30;115.87;;;3.20;;
8411;SDS011;4243;49.296;11.348;2022-11-20T03:36:57;115.37;;;3.20;;
8411;SDS011;4243;49.296;11.348;2022-11-20T03:39:24;115.67;;;3.23;;
8411;SDS011;4243;49.296;11.348;2022-11-20T03:41:52;114.73;;;3.17;;
8411;SDS011;4243;49.296;11.348;2022-11-20T03:44:20;115.10;;;3.20;;
8411;SDS011;4243;49.296;11.348;2022-11-20T03:46:48;114.80;;;3.10;;
8411;SDS011;4243;49.296;11.348;2022-11-20T03:49:15;115.50;;;3.20;;
8411;SDS011;4243;49.296;11.348;2022-11-20T03:51:43;115.37;;;3.20;;
8411;SDS011;4243;49.296;11.348;2022-11-20T03:54:10;115.73;;;3.23;;
8411;SDS011;4243;49.296;11.348;2022-11-20T03:56:37;113.40;;;3.17;;
8411;SDS011;4243;49.296;11.348;2022-11-20T03:59:05;115.10;;;3.20;;
8411;SDS011;4243;49.296;11.348;2022-11-20T04:01:33;115.60;;;3.13;;
8411;SDS011;4243;49.296;11.348;2022-11-20T04:04:12;115.67;;;3.23;;
8411;SDS011;4243;49.296;11.348;2022-11-20T04:06:39;115.37;;;3.20;;
8411;SDS011;4243;49.296;11.348;2022-11-20T04:09:07;115.67;;;3.17;;
8411;SDS011;4243;49.296;11.348;2022-11-20T04:11:34;115.30;;;3.23;;
8411;SDS011;4243;49.296;11.348;2022-11-20T04:14:06;115.67;;;3.20;;
8411;SDS011;4243;49.296;11.348;2022-11-20T04:16:42;115.37;;;3.20;;
8411;SDS011;4243;49.296;11.348;2022-11-20T04:19:11;115.80;;;3.17;;
8411;SDS011;4243;49.296;11.348;2022-11-20T04:21:41;114.90;;;3.13;;
8411;SDS011;4243;49.296;11.348;2022-11-20T04:24:10;115.53;;;3.10;;
8411;SDS011;4243;49.296;11.348;2022-11-20T04:26:38;115.00;;;3.20;;
8411;SDS011;4243;49.296;11.348;2022-11-20T04:29:05;115.00;;;3.20;;
8411;SDS011;4243;49.296;11.348;2022-11-20T04:31:37;115.73;;;3.10;;
8411;SDS011;4243;49.296;11.348;2022-11-20T04:34:05;115.00;;;3.17;;
8411;SDS011;4243;49.296;11.348;2022-11-20T04:36:33;115.47;;;3.17;;
8411;SDS011;4243;49.296;11.348;2022-11-20T04:39:02;115.47;;;3.17;;
8411;SDS011;4243;49.296;11.348;2022-11-20T04:41:33;115.30;;;3.17;;
8411;SDS011;4243;49.296;11.348;2022-11-20T04:44:03;114.47;;;3.17;;
8411;SDS011;4243;49.296;11.348;2022-11-20T04:46:36;115.50;;;3.27;;
8411;SDS011;4243;49.296;11.348;2022-11-20T04:49:08;115.63;;;3.23;;
8411;SDS011;4243;49.296;11.348;2022-11-20T04:51:37;115.87;;;3.17;;
8411;SDS011;4243;49.296;11.348;2022-11-20T04:54:04;115.00;;;3.17;;
8411;SDS011;4243;49.296;11.348;2022-11-20T04:56:31;115.27;;;3.20;;
8411;SDS011;4243;49.296;11.348;2022-11-20T04:59:02;115.57;;;3.20;;
8411;SDS011;4243;49.296;11.348;2022-11-20T05:01:29;115.67;;;3.17;;
8411;SDS011;4243;49.296;11.348;2022-11-20T05:03:58;114.07;;;3.17;;
8411;SDS011;4243;49.296;11.348;2022-11-20T05:06:25;114.27;;;3.20;;
8411;SDS011;4243;49.296;11.348;2022-11-20T05:08:52;115.10;;;3.13;;
8411;SDS011;4243;49.296;11.348;2022-11-20T05:11:20;115.47;;;3.20;;
8411;SDS011;4243;49.296;11.348;2022-11-20T05:13:48;115.13;;;3.20;;
8411;SDS011;4243;49.296;11.348;2022-11-20T05:16:18;115.67;;;3.17;;
8411;SDS011;4243;49.296;11.348;2022-11-20T05:18:50;115.47;;;3.20;;
8411;SDS011;4243;49.296;11.348;2022-11-20T05:21:20;114.60;;;3.10;;
8411;SDS011;4243;49.296;11.348;2022-11-20T05:23:47;115.27;;;3.17;;
8411;SDS011;4243;49.296;11.348;2022-11-20T05:26:16;115.30;;;3.13;;
8411;SDS011;4243;49.296;11.348;2022-11-20T05:28:50;115.67;;;3.17;;
8411;SDS011;4243;49.296;11.348;2022-11-20T05:31:18;115.67;;;3.20;;
8411;SDS011;4243;49.296;11.348;2022-11-20T05:33:54;115.57;;;3.20;;
8411;SDS011;4243;49.296;11.348;2022-11-20T05:36:23;115.10;;;3.10;;
8411;SDS011;4243;49.296;11.348;2022-11-20T05:38:50;114.27;;;3.13;;
8411;SDS011;4243;49.296;11.348;2022-11-20T05:41:25;115.73;;;3.20;;
8411;SDS011;4243;49.296;11.348;2022-11-20T05:43:52;114.83;;;3.20;;
8411;SDS011;4243;49.296;11.348;2022-11-20T05:46:20;115.37;;;3.20;;
8411;SDS011;4243;49.296;11.348;2022-11-20T05:48:54;115.47;;;3.10;;
8411;SDS011;4243;49.296;11.348;2022-11-20T05:51:23;114.53;;;3.23;;
8411;SDS011;4243;49.296;11.348;2022-11-20T05:53:52;115.87;;;3.20;;
8411;SDS011;4243;49.296;11.348;2022-11-20T05:56:19;115.57;;;3.20;;
8411;SDS011;4243;49.296;11.348;2022-11-20T05:58:48;115.47;;;3.20;;
8411;SDS011;4243;49.296;11.348;2022-11-20T06:01:20;115.00;;;3.20;;
8411;SDS011;4243;49.296;11.348;2022-11-20T06:03:52;114.67;;;3.17;;
8411;SDS011;4243;49.296;11.348;2022-11-20T06:06:20;115.37;;;3.10;;
8411;SDS011;4243;49.296;11.348;2022-11-20T06:08:48;115.27;;;3.20;;
8411;SDS011;4243;49.296;11.348;2022-11-20T06:11:15;115.40;;;3.17;;
8411;SDS011;4243;49.296;11.348;2022-11-20T06:13:43;115.27;;;3.10;;
8411;SDS011;4243;49.296;11.348;2022-11-20T06:16:12;114.97;;;3.20;;
8411;SDS011;4243;49.296;11.348;2022-11-20T06:18:46;114.80;;;3.17;;
8411;SDS011;4243;49.296;11.348;2022-11-20T06:21:14;114.70;;;3.23;;
8411;SDS011;4243;49.296;11.348;2022-11-20T06:23:46;115.30;;;3.17;;
8411;SDS011;4243;49.296;11.348;2022-11-20T06:26:16;115.57;;;3.10;;
8411;SDS011;4243;49.296;11.348;2022-11-20T06:28:53;115.37;;;3.20;;
8411;SDS011;4243;49.296;11.348;2022-11-20T06:31:22;115.47;;;3.20;;
8411;SDS011;4243;49.296;11.348;2022-11-20T06:33:52;115.87;;;3.23;;
8411;SDS011;4243;49.296;11.348;2022-11-20T06:36:20;114.30;;;3.10;;
8411;SDS011;4243;49.296;11.348;2022-11-20T06:38:49;113.97;;;3.10;;
8411;SDS011;4243;49.296;11.348;2022-11-20T06:41:17;114.80;;;3.20;;
8411;SDS011;4243;49.296;11.348;2022-11-20T06:43:47;115.00;;;3.20;;
8411;SDS011;4243;49.296;11.348;2022-11-20T06:46:16;115.97;;;3.20;;
8411;SDS011;4243;49.296;11.348;2022-11-20T06:48:46;115.20;;;3.20;;
8411;SDS011;4243;49.296;11.348;2022-11-20T06:51:15;115.47;;;3.20;;
8411;SDS011;4243;49.296;11.348;2022-11-20T06:53:42;115.30;;;3.17;;
8411;SDS011;4243;49.296;11.348;2022-11-20T06:56:10;115.20;;;3.23;;
8411;SDS011;4243;49.296;11.348;2022-11-20T06:58:37;115.47;;;3.10;;
8411;SDS011;4243;49.296;11.348;2022-11-20T07:01:05;115.47;;;3.20;;
8411;SDS011;4243;49.296;11.348;2022-11-20T07:03:37;115.67;;;3.13;;
8411;SDS011;4243;49.296;11.348;2022-11-20T07:06:06;115.37;;;3.17;;
8411;SDS011;4243;49.296;11.348;2022-11-20T07:08:33;114.87;;;3.10;;
8411;SDS011;4243;49.296;11.348;2022-11-20T07:11:02;115.47;;;3.20;;
8411;SDS011;4243;49.296;11.348;2022-11-20T07:13:32;115.37;;;3.20;;
8411;SDS011;4243;49.296;11.348;2022-11-20T07:16:01;114.60;;;3.17;;
8411;SDS011;4243;49.296;11.348;2022-11-20T07:18:32;114.97;;;3.23;;
8411;SDS011;4243;49.296;11.348;2022-11-20T07:21:00;115.77;;;3.20;;
8411;SDS011;4243;49.296;11.348;2022-11-20T07:23:29;114.90;;;3.20;;
8411;SDS011;4243;49.296;11.348;2022-11-20T07:25:56;114.80;;;3.20;;
8411;SDS011;4243;49.296;11.348;2022-11-20T07:28:23;115.27;;;3.17;;
8411;SDS011;4243;49.296;11.348;2022-11-20T07:30:51;115.67;;;3.17;;
8411;SDS011;4243;49.296;11.348;2022-11-20T07:33:19;115.73;;;3.17;;
8411;SDS011;4243;49.296;11.348;2022-11-20T07:35:46;115.27;;;3.20;;
8411;SDS011;4243;49.296;11.348;2022-11-20T07:38:13;115.37;;;3.13;;
8411;SDS011;4243;49.296;11.348;2022-11-20T07:40:40;115.20;;;3.10;;
8411;SDS011;4243;49.296;11.348;2022-11-20T07:43:07;114.40;;;3.17;;
8411;SDS011;4243;49.296;11.348;2022-11-20T07:45:34;115.47;;;3.20;;
8411;SDS011;4243;49.296;11.348;2022-11-20T07:48:02;114.93;;;3.13;;
8411;SDS011;4243;49.296;11.348;2022-11-20T07:50:29;115.27;;;3.20;;
8411;SDS011;4243;49.296;11.348;2022-11-20T07:53:03;115.27;;;3.17;;
8411;SDS011;4243;49.296;11.348;2022-11-20T07:55:31;115.67;;;3.20;;
8411;SDS011;4243;49.296;11.348;2022-11-20T07:57:59;114.73;;;3.07;;
8411;SDS011;4243;49.296;11.348;2022-11-20T08:00:26;115.17;;;3.13;;
8411;SDS011;4243;49.296;11.348;2022-11-20T08:02:54;115.37;;;3.07;;
8411;SDS011;4243;49.296;11.348;2022-11-20T08:05:21;114.50;;;3.17;;
8411;SDS011;4243;49.296;11.348;2022-11-20T08:07:48;114.50;;;3.03;;
8411;SDS011;4243;49.296;11.348;2022-11-20T08:10:15;115.57;;;3.10;;
8411;SDS011;4243;49.296;11.348;2022-11-20T08:12:43;115.07;;;3.10;;
8411;SDS011;4243;49.296;11.348;2022-11-20T08:15:38;114.90;;;3.17;;
8411;SDS011;4243;49.296;11.348;2022-11-20T08:18:10;115.47;;;3.10;;
8411;SDS011;4243;49.296;11.348;2022-11-20T08:20:56;115.47;;;3.17;;
8411;SDS011;4243;49.296;11.348;2022-11-20T08:23:23;114.50;;;3.10;;
8411;SDS011;4243;49.296;11.348;2022-11-20T08:25:50;115.17;;;3.10;;
8411;SDS011;4243;49.296;11.348;2022-11-20T08:28:18;115.10;;;3.03;;
8411;SDS011;4243;49.296;11.348;2022-11-20T08:30:47;115.67;;;3.00;;
8411;SDS011;4243;49.296;11.348;2022-11-20T08:33:16;115.30;;;3.10;;
8411;SDS011;4243;49.296;11.348;2022-11-20T08:35:44;115.47;;;3.07;;
8411;SDS011;4243;49.296;11.348;2022-11-20T08:38:12;115.40;;;3.10;;
8411;SDS011;4243;49.296;11.348;2022-11-20T08:40:39;114.97;;;3.03;;
8411;SDS011;4243;49.296;11.348;2022-11-20T08:43:06;115.67;;;3.10;;
8411;SDS011;4243;49.296;11.348;2022-11-20T08:45:33;115.77;;;3.03;;
8411;SDS011;4243;49.296;11.348;2022-11-20T08:48:01;115.40;;;3.07;;
8411;SDS011;4243;49.296;11.348;2022-11-20T08:50:30;115.10;;;3.10;;
8411;SDS011;4243;49.296;11.348;2022-11-20T08:53:03;115.77;;;3.10;;
8411;SDS011;4243;49.296;11.348;2022-11-20T08:55:31;115.00;;;3.07;;
8411;SDS011;4243;49.296;11.348;2022-11-20T08:58:04;115.10;;;3.07;;
8411;SDS011;4243;49.296;11.348;2022-11-20T09:03:43;114.57;;;3.10;;
8411;SDS011;4243;49.296;11.348;2022-11-20T09:06:10;114.93;;;3.10;;
8411;SDS011;4243;49.296;11.348;2022-11-20T09:08:38;115.40;;;3.13;;
8411;SDS011;4243;49.296;11.348;2022-11-20T09:11:06;116.07;;;3.10;;
8411;SDS011;4243;49.296;11.348;2022-11-20T09:13:34;115.23;;;3.13;;
8411;SDS011;4243;49.296;11.348;2022-11-20T09:16:06;114.50;;;3.10;;
8411;SDS011;4243;49.296;11.348;2022-11-20T09:18:35;115.37;;;3.10;;
8411;SDS011;4243;49.296;11.348;2022-11-20T09:21:04;115.97;;;3.00;;
8411;SDS011;4243;49.296;11.348;2022-11-20T09:23:37;115.20;;;3.03;;
8411;SDS011;4243;49.296;11.348;2022-11-20T09:26:11;115.77;;;3.03;;
8411;SDS011;4243;49.296;11.348;2022-11-20T09:28:40;115.47;;;3.07;;
8411;SDS011;4243;49.296;11.348;2022-11-20T09:31:17;115.40;;;2.97;;
8411;SDS011;4243;49.296;11.348;2022-11-20T09:33:51;115.27;;;2.90;;
8411;SDS011;4243;49.296;11.348;2022-11-20T09:36:19;114.80;;;2.97;;
8411;SDS011;4243;49.296;11.348;2022-11-20T09:38:46;114.90;;;2.90;;
8411;SDS011;4243;49.296;11.348;2022-11-20T09:47:52;116.10;;;2.93;;
8411;SDS011;4243;49.296;11.348;2022-11-20T09:50:56;115.57;;;3.00;;
8411;SDS011;4243;49.296;11.348;2022-11-20T09:54:02;115.20;;;2.90;;
8411;SDS011;4243;49.296;11.348;2022-11-20T09:56:50;116.17;;;2.97;;
8411;SDS011;4243;49.296;11.348;2022-11-20T09:59:56;114.47;;;2.90;;
8411;SDS011;4243;49.296;11.348;2022-11-20T10:02:56;114.43;;;2.93;;
8411;SDS011;4243;49.296;11.348;2022-11-20T10:05:47;115.87;;;2.93;;
8411;SDS011;4243;49.296;11.348;2022-11-20T10:08:24;115.00;;;2.93;;
8411;SDS011;4243;49.296;11.348;2022-11-20T10:11:20;115.43;;;2.90;;
8411;SDS011;4243;49.296;11.348;2022-11-20T10:14:16;116.17;;;3.00;;
8411;SDS011;4243;49.296;11.348;2022-11-20T10:23:54;116.03;;;2.93;;
8411;SDS011;4243;49.296;11.348;2022-11-20T10:29:36;115.77;;;3.03;;
8411;SDS011;4243;49.296;11.348;2022-11-20T10:32:17;115.33;;;2.97;;
8411;SDS011;4243;49.296;11.348;2022-11-20T10:34:57;115.10;;;3.00;;
8411;SDS011;4243;49.296;11.348;2022-11-20T10:37:58;115.60;;;3.10;;
8411;SDS011;4243;49.296;11.348;2022-11-20T10:40:38;115.40;;;3.00;;
8411;SDS011;4243;49.296;11.348;2022-11-20T10:46:21;116.07;;;2.97;;
8411;SDS011;4243;49.296;11.348;2022-11-20T10:48:51;115.30;;;3.10;;
8411;SDS011;4243;49.296;11.348;2022-11-20T10:54:54;116.23;;;3.00;;
8411;SDS011;4243;49.296;11.348;2022-11-20T10:57:47;116.07;;;2.97;;
8411;SDS011;4243;49.296;11.348;2022-11-20T11:00:42;115.50;;;3.00;;
8411;SDS011;4243;49.296;11.348;2022-11-20T11:03:20;115.50;;;3.00;;
8411;SDS011;4243;49.296;11.348;2022-11-20T11:05:54;115.80;;;2.93;;
8411;SDS011;4243;49.296;11.348;2022-11-20T11:08:55;116.10;;;3.00;;
8411;SDS011;4243;49.296;11.348;2022-11-20T11:11:30;116.27;;;2.90;;
8411;SDS011;4243;49.296;11.348;2022-11-20T11:16:57;115.53;;;2.93;;
8411;SDS011;4243;49.296;11.348;2022-11-20T11:19:25;116.67;;;3.00;;
8411;SDS011;4243;49.296;11.348;2022-11-20T11:21:56;116.00;;;2.83;;
8411;SDS011;4243;49.296;11.348;2022-11-20T11:24:24;115.70;;;2.90;;
8411;SDS011;4243;49.296;11.348;2022-11-20T11:27:12;115.50;;;2.90;;
8411;SDS011;4243;49.296;11.348;2022-11-20T11:29:44;115.07;;;2.80;;
8411;SDS011;4243;49.296;11.348;2022-11-20T11:32:18;116.07;;;2.90;;
8411;SDS011;4243;49.296;11.348;2022-11-20T11:35:00;115.70;;;2.90;;
8411;SDS011;4243;49.296;11.348;2022-11-20T11:37:33;114.97;;;2.90;;
8411;SDS011;4243;49.296;11.348;2022-11-20T11:40:04;115.80;;;2.83;;
8411;SDS011;4243;49.296;11.348;2022-11-20T11:42:56;115.97;;;2.80;;
8411;SDS011;4243;49.296;11.348;2022-11-20T11:45:29;115.70;;;2.97;;
8411;SDS011;4243;49.296;11.348;2022-11-20T11:47:57;116.00;;;2.87;;
8411;SDS011;4243;49.296;11.348;2022-11-20T11:50:28;116.10;;;2.87;;
8411;SDS011;4243;49.296;11.348;2022-11-20T11:53:09;113.03;;;2.80;;
8411;SDS011;4243;49.296;11.348;2022-11-20T11:56:02;116.00;;;2.90;;
8411;SDS011;4243;49.296;11.348;2022-11-20T11:58:51;116.27;;;2.87;;
8411;SDS011;4243;49.296;11.348;2022-11-20T12:01:24;116.23;;;2.90;;
8411;SDS011;4243;49.296;11.348;2022-11-20T12:10:15;115.40;;;2.80;;
8411;SDS011;4243;49.296;11.348;2022-11-20T12:12:54;115.43;;;2.97;;
8411;SDS011;4243;49.296;11.348;2022-11-20T12:15:33;115.17;;;3.00;;
8411;SDS011;4243;49.296;11.348;2022-11-20T12:18:00;115.10;;;2.97;;
8411;SDS011;4243;49.296;11.348;2022-11-20T12:20:31;114.97;;;3.07;;
8411;SDS011;4243;49.296;11.348;2022-11-20T12:26:03;115.57;;;3.10;;
8411;SDS011;4243;49.296;11.348;2022-11-20T12:29:59;115.87;;;3.03;;
8411;SDS011;4243;49.296;11.348;2022-11-20T12:44:40;114.70;;;2.90;;
8411;SDS011;4243;49.296;11.348;2022-11-20T12:51:32;114.77;;;2.90;;
8411;SDS011;4243;49.296;11.348;2022-11-20T12:57:43;116.07;;;2.97;;
8411;SDS011;4243;49.296;11.348;2022-11-20T13:00:38;114.80;;;2.97;;
8411;SDS011;4243;49.296;11.348;2022-11-20T13:06:20;115.87;;;2.90;;
8411;SDS011;4243;49.296;11.348;2022-11-20T13:08:49;116.23;;;2.90;;
8411;SDS011;4243;49.296;11.348;2022-11-20T13:14:36;116.07;;;2.90;;
8411;SDS011;4243;49.296;11.348;2022-11-20T13:20:29;115.90;;;2.80;;
8411;SDS011;4243;49.296;11.348;2022-11-20T13:22:59;116.00;;;2.90;;
8411;SDS011;4243;49.296;11.348;2022-11-20T13:25:28;115.50;;;2.90;;
8411;SDS011;4243;49.296;11.348;2022-11-20T13:28:05;115.50;;;2.93;;
8411;SDS011;4243;49.296;11.348;2022-11-20T13:30:56;116.10;;;2.80;;
8411;SDS011;4243;49.296;11.348;2022-11-20T13:33:32;115.00;;;2.87;;
8411;SDS011;4243;49.296;11.348;2022-11-20T13:36:03;116.03;;;2.93;;
8411;SDS011;4243;49.296;11.348;2022-11-20T13:38:49;115.07;;;2.93;;
8411;SDS011;4243;49.296;11.348;2022-11-20T13:41:27;115.27;;;2.83;;
8411;SDS011;4243;49.296;11.348;2022-11-20T13:46:37;114.67;;;2.90;;
8411;SDS011;4243;49.296;11.348;2022-11-20T13:49:22;116.00;;;3.07;;
8411;SDS011;4243;49.296;11.348;2022-11-20T13:52:01;115.93;;;2.97;;
8411;SDS011;4243;49.296;11.348;2022-11-20T13:55:29;115.37;;;2.90;;
8411;SDS011;4243;49.296;11.348;2022-11-20T14:01:32;115.00;;;2.87;;
8411;SDS011;4243;49.296;11.348;2022-11-20T14:04:12;115.57;;;2.90;;
8411;SDS011;4243;49.296;11.348;2022-11-20T14:06:55;115.67;;;2.90;;
8411;SDS011;4243;49.296;11.348;2022-11-20T14:11:57;115.63;;;2.83;;
8411;SDS011;4243;49.296;11.348;2022-11-20T14:14:28;116.17;;;2.97;;
8411;SDS011;4243;49.296;11.348;2022-11-20T14:19:54;115.77;;;2.97;;
8411;SDS011;4243;49.296;11.348;2022-11-20T14:22:29;115.13;;;3.00;;
8411;SDS011;4243;49.296;11.348;2022-11-20T14:27:43;115.57;;;2.90;;
8411;SDS011;4243;49.296;11.348;2022-11-20T14:30:19;115.67;;;3.00;;
8411;SDS011;4243;49.296;11.348;2022-11-20T14:32:51;115.50;;;2.90;;
8411;SDS011;4243;49.296;11.348;2022-11-20T14:35:27;115.60;;;2.90;;
8411;SDS011;4243;49.296;11.348;2022-11-20T14:38:03;114.47;;;2.97;;
8411;SDS011;4243;49.296;11.348;2022-11-20T14:40:40;112.27;;;3.00;;
8411;SDS011;4243;49.296;11.348;2022-11-20T14:43:27;115.33;;;3.03;;
8411;SDS011;4243;49.296;11.348;2022-11-20T14:46:02;114.47;;;2.90;;
8411;SDS011;4243;49.296;11.348;2022-11-20T14:48:41;115.20;;;3.00;;
8411;SDS011;4243;49.296;11.348;2022-11-20T14:51:58;115.60;;;2.87;;
8411;SDS011;4243;49.296;11.348;2022-11-20T14:54:19;115.30;;;3.00;;
8411;SDS011;4243;49.296;11.348;2022-11-20T14:56:55;114.90;;;3.00;;
8411;SDS011;4243;49.296;11.348;2022-11-20T14:59:30;115.47;;;2.90;;
8411;SDS011;4243;49.296;11.348;2022-11-20T15:02:04;115.97;;;2.97;;
8411;SDS011;4243;49.296;11.348;2022-11-20T15:04:47;116.30;;;3.00;;
8411;SDS011;4243;49.296;11.348;2022-11-20T15:07:24;115.50;;;2.90;;
8411;SDS011;4243;49.296;11.348;2022-11-20T15:10:08;115.77;;;3.03;;
8411;SDS011;4243;49.296;11.348;2022-11-20T15:12:59;115.20;;;3.03;;
8411;SDS011;4243;49.296;11.348;2022-11-20T15:15:42;115.23;;;3.00;;
8411;SDS011;4243;49.296;11.348;2022-11-20T15:18:16;115.97;;;3.00;;
8411;SDS011;4243;49.296;11.348;2022-11-20T15:21:11;115.57;;;3.00;;
8411;SDS011;4243;49.296;11.348;2022-11-20T15:23:44;112.67;;;2.97;;
8411;SDS011;4243;49.296;11.348;2022-11-20T15:26:12;115.40;;;2.97;;
8411;SDS011;4243;49.296;11.348;2022-11-20T15:28:53;115.13;;;3.00;;
8411;SDS011;4243;49.296;11.348;2022-11-20T15:31:21;116.20;;;3.00;;
8411;SDS011;4243;49.296;11.348;2022-11-20T15:33:50;115.17;;;3.00;;
8411;SDS011;4243;49.296;11.348;2022-11-20T15:36:17;115.73;;;2.97;;
8411;SDS011;4243;49.296;11.348;2022-11-20T15:38:44;114.50;;;3.00;;
8411;SDS011;4243;49.296;11.348;2022-11-20T15:41:11;115.60;;;2.97;;
8411;SDS011;4243;49.296;11.348;2022-11-20T15:43:38;115.20;;;2.90;;
8411;SDS011;4243;49.296;11.348;2022-11-20T15:46:06;114.60;;;2.90;;
8411;SDS011;4243;49.296;11.348;2022-11-20T15:48:41;116.27;;;2.93;;
8411;SDS011;4243;49.296;11.348;2022-11-20T15:51:21;115.73;;;3.00;;
8411;SDS011;4243;49.296;11.348;2022-11-20T15:54:12;115.37;;;2.90;;
8411;SDS011;4243;49.296;11.348;2022-11-20T15:56:43;115.27;;;2.93;;
8411;SDS011;4243;49.296;11.348;2022-11-20T15:59:10;115.30;;;2.90;;
8411;SDS011;4243;49.296;11.348;2022-11-20T16:01:38;115.40;;;2.90;;
8411;SDS011;4243;49.296;11.348;2022-11-20T16:04:08;114.70;;;2.90;;
8411;SDS011;4243;49.296;11.348;2022-11-20T16:06:39;115.40;;;3.00;;
8411;SDS011;4243;49.296;11.348;2022-11-20T16:09:06;113.97;;;3.00;;
8411;SDS011;4243;49.296;11.348;2022-11-20T16:11:34;112.57;;;2.93;;
8411;SDS011;4243;49.296;11.348;2022-11-20T16:14:03;115.57;;;3.00;;
8411;SDS011;4243;49.296;11.348;2022-11-20T16:16:51;116.13;;;3.00;;
8411;SDS011;4243;49.296;11.348;2022-11-20T16:19:18;116.07;;;2.93;;
8411;SDS011;4243;49.296;11.348;2022-11-20T16:21:46;115.10;;;3.00;;
8411;SDS011;4243;49.296;11.348;2022-11-20T16:24:13;114.90;;;3.00;;
8411;SDS011;4243;49.296;11.348;2022-11-20T16:26:42;115.37;;;3.00;;
8411;SDS011;4243;49.296;11.348;2022-11-20T16:29:09;115.40;;;2.97;;
8411;SDS011;4243;49.296;11.348;2022-11-20T16:31:36;115.10;;;3.00;;
8411;SDS011;4243;49.296;11.348;2022-11-20T16:34:05;115.20;;;3.00;;
8411;SDS011;4243;49.296;11.348;2022-11-20T16:36:41;113.43;;;2.93;;
8411;SDS011;4243;49.296;11.348;2022-11-20T16:39:11;115.40;;;2.97;;